createdAt,value
2022-10-23T00:00:35.682Z,1004.31
2022-10-23T00:01:35.667Z,1004.33
2022-10-23T00:02:35.656Z,1004.3
2022-10-23T00:03:35.647Z,1004.33
2022-10-23T00:04:35.653Z,1004.27
2022-10-23T00:05:35.627Z,1004.29
2022-10-23T00:06:35.615Z,1004.28
2022-10-23T00:07:35.632Z,1004.24
2022-10-23T00:08:35.593Z,1004.25
2022-10-23T00:09:35.582Z,1004.24
2022-10-23T00:10:35.589Z,1004.23
2022-10-23T00:11:35.559Z,1004.17
2022-10-23T00:12:35.550Z,1004.19
2022-10-23T00:13:35.535Z,1004.21
2022-10-23T00:14:35.531Z,1004.15
2022-10-23T00:15:35.515Z,1004.16
2022-10-23T00:16:35.511Z,1004.18
2022-10-23T00:17:35.497Z,1004.17
2022-10-23T00:18:35.487Z,1004.15
2022-10-23T00:19:35.489Z,1004.15
2022-10-23T00:20:35.464Z,1004.2
2022-10-23T00:21:35.453Z,1004.2
2022-10-23T00:22:35.445Z,1004.2
2022-10-23T00:23:35.431Z,1004.18
2022-10-23T00:24:35.417Z,1004.18
2022-10-23T00:25:35.421Z,1004.2
2022-10-23T00:26:35.399Z,1004.21
2022-10-23T00:27:35.389Z,1004.2
2022-10-23T00:28:35.378Z,1004.21
2022-10-23T00:29:35.364Z,1004.15
2022-10-23T00:30:35.355Z,1004.12
2022-10-23T00:31:35.345Z,1004.19
2022-10-23T00:32:35.347Z,1004.17
2022-10-23T00:33:35.329Z,1004.11
2022-10-23T00:34:35.318Z,1004.11
2022-10-23T00:35:35.307Z,1004.21
2022-10-23T00:36:35.298Z,1004.21
2022-10-23T00:37:35.278Z,1004.17
2022-10-23T00:38:35.276Z,1004.19
2022-10-23T00:39:35.257Z,1004.21
2022-10-23T00:40:35.256Z,1004.18
2022-10-23T00:41:35.242Z,1004.16
2022-10-23T00:42:35.241Z,1004.2
2022-10-23T00:43:35.217Z,1004.2
2022-10-23T00:44:35.203Z,1004.18
2022-10-23T00:45:35.199Z,1004.23
2022-10-23T00:46:35.180Z,1004.16
2022-10-23T00:47:35.173Z,1004.16
2022-10-23T00:48:35.163Z,1004.13
2022-10-23T00:49:35.164Z,1004.1
2022-10-23T00:50:35.150Z,1004.1
2022-10-23T00:51:35.130Z,1004.07
2022-10-23T00:52:35.120Z,1004.07
2022-10-23T00:53:35.112Z,1004.06
2022-10-23T00:54:35.102Z,1004.05
2022-10-23T00:55:35.089Z,1004.04
2022-10-23T00:56:35.091Z,1004.02
2022-10-23T00:57:35.070Z,1004.03
2022-10-23T00:58:35.060Z,1004.02
2022-10-23T00:59:35.058Z,1004.08
2022-10-23T01:00:35.040Z,1004.01
2022-10-23T01:01:35.026Z,1004.05
2022-10-23T01:02:35.013Z,1004.03
2022-10-23T01:03:35.004Z,1004.01
2022-10-23T01:04:34.993Z,1003.97
2022-10-23T01:05:34.995Z,1003.99
2022-10-23T01:06:35.002Z,1003.97
2022-10-23T01:07:34.959Z,1003.98
2022-10-23T01:08:34.948Z,1003.99
2022-10-23T01:09:34.961Z,1004.05
2022-10-23T01:10:34.929Z,1004.03
2022-10-23T01:11:34.920Z,1004.08
2022-10-23T01:12:34.908Z,1004.08
2022-10-23T01:13:34.899Z,1004.08
2022-10-23T01:14:34.882Z,1004.07
2022-10-23T01:15:34.870Z,1004.02
2022-10-23T01:16:34.862Z,1004.05
2022-10-23T01:17:34.858Z,1004.05
2022-10-23T01:18:34.846Z,1004.01
2022-10-23T01:19:34.838Z,1003.97
2022-10-23T01:20:34.820Z,1003.94
2022-10-23T01:21:34.810Z,1003.95
2022-10-23T01:22:34.826Z,1003.93
2022-10-23T01:23:34.795Z,1003.87
2022-10-23T01:24:34.776Z,1003.9
2022-10-23T01:25:34.765Z,1003.88
2022-10-23T01:26:34.755Z,1003.88
2022-10-23T01:27:34.743Z,1003.9
2022-10-23T01:28:34.741Z,1003.87
2022-10-23T01:29:34.724Z,1003.88
2022-10-23T01:30:34.721Z,1003.88
2022-10-23T01:31:34.699Z,1003.93
2022-10-23T01:32:34.700Z,1003.89
2022-10-23T01:33:34.688Z,1003.88
2022-10-23T01:34:34.668Z,1003.87
2022-10-23T01:35:34.681Z,1003.82
2022-10-23T01:36:34.648Z,1003.82
2022-10-23T01:37:34.636Z,1003.8
2022-10-23T01:38:34.631Z,1003.83
2022-10-23T01:39:34.612Z,1003.85
2022-10-23T01:40:34.610Z,1003.86
2022-10-23T01:41:34.593Z,1003.88
2022-10-23T01:42:34.585Z,1003.91
2022-10-23T01:43:34.578Z,1003.91
2022-10-23T01:44:34.565Z,1003.92
2022-10-23T01:45:34.550Z,1003.97
2022-10-23T01:46:34.544Z,1004.01
2022-10-23T01:47:34.530Z,1003.97
2022-10-23T01:48:34.535Z,1003.96
2022-10-23T01:49:34.515Z,1003.95
2022-10-23T01:50:34.500Z,1003.98
2022-10-23T01:51:34.493Z,1004.01
2022-10-23T01:52:34.493Z,1004
2022-10-23T01:53:34.472Z,1003.91
2022-10-23T01:54:34.458Z,1003.94
2022-10-23T01:55:34.462Z,1003.86
2022-10-23T01:56:34.434Z,1003.87
2022-10-23T01:57:34.430Z,1003.84
2022-10-23T01:58:34.418Z,1003.79
2022-10-23T01:59:34.408Z,1003.83
2022-10-23T02:00:34.391Z,1003.8
2022-10-23T02:01:34.379Z,1003.82
2022-10-23T02:02:34.388Z,1003.79
2022-10-23T02:03:34.365Z,1003.84
2022-10-23T02:04:34.350Z,1003.77
2022-10-23T02:05:34.341Z,1003.79
2022-10-23T02:06:34.331Z,1003.83
2022-10-23T02:07:34.319Z,1003.82
2022-10-23T02:08:34.310Z,1003.76
2022-10-23T02:09:34.314Z,1003.8
2022-10-23T02:10:34.284Z,1003.76
2022-10-23T02:11:34.273Z,1003.78
2022-10-23T02:12:34.269Z,1003.85
2022-10-23T02:13:34.256Z,1003.77
2022-10-23T02:14:34.245Z,1003.8
2022-10-23T02:15:34.237Z,1003.79
2022-10-23T02:16:34.217Z,1003.75
2022-10-23T02:17:34.216Z,1003.79
2022-10-23T02:18:34.204Z,1003.73
2022-10-23T02:19:34.191Z,1003.76
2022-10-23T02:20:34.180Z,1003.79
2022-10-23T02:21:34.173Z,1003.76
2022-10-23T02:22:34.169Z,1003.76
2022-10-23T02:23:34.149Z,1003.8
2022-10-23T02:24:34.150Z,1003.71
2022-10-23T02:25:34.128Z,1003.67
2022-10-23T02:26:34.113Z,1003.7
2022-10-23T02:27:34.104Z,1003.71
2022-10-23T02:28:34.095Z,1003.63
2022-10-23T02:29:34.098Z,1003.66
2022-10-23T02:30:34.082Z,1003.67
2022-10-23T02:31:34.066Z,1003.67
2022-10-23T02:32:34.051Z,1003.61
2022-10-23T02:33:34.055Z,1003.59
2022-10-23T02:34:34.032Z,1003.51
2022-10-23T02:35:41.594Z,1003.52
2022-10-23T02:36:34.007Z,1003.53
2022-10-23T02:37:33.995Z,1003.46
2022-10-23T02:38:33.984Z,1003.46
2022-10-23T02:39:33.984Z,1003.43
2022-10-23T02:40:33.967Z,1003.48
2022-10-23T02:41:33.963Z,1003.44
2022-10-23T02:42:33.946Z,1003.37
2022-10-23T02:43:33.935Z,1003.41
2022-10-23T02:44:33.917Z,1003.38
2022-10-23T02:45:33.924Z,1003.42
2022-10-23T02:46:33.911Z,1003.42
2022-10-23T02:47:33.901Z,1003.49
2022-10-23T02:48:33.902Z,1003.46
2022-10-23T02:49:41.552Z,1003.44
2022-10-23T02:50:33.892Z,1003.4
2022-10-23T02:51:33.852Z,1003.4
2022-10-23T02:52:33.867Z,1003.42
2022-10-23T02:53:33.837Z,1003.38
2022-10-23T02:54:33.834Z,1003.36
2022-10-23T02:55:33.827Z,1003.36
2022-10-23T02:56:33.834Z,1003.36
2022-10-23T02:57:33.796Z,1003.35
2022-10-23T02:58:33.785Z,1003.41
2022-10-23T02:59:33.774Z,1003.32
2022-10-23T03:00:33.754Z,1003.29
2022-10-23T03:01:33.736Z,1003.29
2022-10-23T03:02:33.764Z,1003.32
2022-10-23T03:03:33.763Z,1003.26
2022-10-23T03:04:33.708Z,1003.24
2022-10-23T03:05:33.723Z,1003.24
2022-10-23T03:06:33.686Z,1003.19
2022-10-23T03:07:33.678Z,1003.23
2022-10-23T03:08:33.666Z,1003.2
2022-10-23T03:09:33.653Z,1003.21
2022-10-23T03:10:33.652Z,1003.16
2022-10-23T03:11:33.652Z,1003.2
2022-10-23T03:12:33.622Z,1003.17
2022-10-23T03:13:33.609Z,1003.15
2022-10-23T03:14:33.611Z,1003.17
2022-10-23T03:15:33.593Z,1003.11
2022-10-23T03:16:33.589Z,1003.14
2022-10-23T03:17:33.569Z,1003.12
2022-10-23T03:18:33.554Z,1003.13
2022-10-23T03:19:33.556Z,1003.14
2022-10-23T03:20:33.540Z,1003.14
2022-10-23T03:21:33.548Z,1003.15
2022-10-23T03:22:33.523Z,1003.09
2022-10-23T03:23:33.551Z,1003.08
2022-10-23T03:24:33.494Z,1003.08
2022-10-23T03:25:33.491Z,1003.07
2022-10-23T03:26:33.473Z,1003.08
2022-10-23T03:27:33.480Z,1003.04
2022-10-23T03:28:33.452Z,1003.07
2022-10-23T03:29:33.479Z,1003.06
2022-10-23T03:30:33.515Z,1003.09
2022-10-23T03:31:41.069Z,1003.07
2022-10-23T03:32:33.424Z,1003.11
2022-10-23T03:33:33.394Z,1003.1
2022-10-23T03:34:33.427Z,1003.08
2022-10-23T03:35:40.945Z,1003.08
2022-10-23T03:36:33.394Z,1003.11
2022-10-23T03:37:33.365Z,1003.01
2022-10-23T03:38:33.345Z,1003.08
2022-10-23T03:39:33.359Z,1003.01
2022-10-23T03:40:33.356Z,1003.03
2022-10-23T03:41:33.323Z,1003.05
2022-10-23T03:42:33.321Z,1003
2022-10-23T03:43:33.291Z,1003.08
2022-10-23T03:44:33.289Z,1002.99
2022-10-23T03:45:33.279Z,1003.04
2022-10-23T03:46:33.263Z,1003.01
2022-10-23T03:47:33.249Z,1003.05
2022-10-23T03:48:33.339Z,1003.04
2022-10-23T03:49:34.440Z,1003.09
2022-10-23T03:50:55.290Z,1003.12
2022-10-23T03:51:34.388Z,1003.06
2022-10-23T03:52:44.801Z,1003.05
2022-10-23T03:53:33.430Z,1003.09
2022-10-23T03:54:34.329Z,1003.09
2022-10-23T03:55:33.340Z,1003.11
2022-10-23T03:56:33.376Z,1003.09
2022-10-23T03:57:33.283Z,1003.08
2022-10-23T03:58:34.247Z,1003.15
2022-10-23T03:59:34.261Z,1003.18
2022-10-23T04:00:33.270Z,1003.2
2022-10-23T04:01:33.228Z,1003.16
2022-10-23T04:02:34.226Z,1003.1
2022-10-23T04:03:33.115Z,1003.18
2022-10-23T04:04:33.386Z,1003.12
2022-10-23T04:05:33.162Z,1003.11
2022-10-23T04:06:33.225Z,1003.17
2022-10-23T04:07:33.157Z,1003.06
2022-10-23T04:08:34.304Z,1003.07
2022-10-23T04:09:33.139Z,1003.02
2022-10-23T04:10:33.115Z,1002.94
2022-10-23T04:11:33.060Z,1002.94
2022-10-23T04:12:33.053Z,1002.89
2022-10-23T04:13:34.090Z,1002.94
2022-10-23T04:14:34.043Z,1002.91
2022-10-23T04:15:34.154Z,1002.86
2022-10-23T04:16:33.188Z,1002.87
2022-10-23T04:17:34.057Z,1002.86
2022-10-23T04:18:33.977Z,1002.87
2022-10-23T04:19:34.009Z,1002.86
2022-10-23T04:20:33.040Z,1002.84
2022-10-23T04:21:33.981Z,1002.82
2022-10-23T04:22:33.049Z,1002.82
2022-10-23T04:23:34.056Z,1002.76
2022-10-23T04:24:33.010Z,1002.79
2022-10-23T04:25:33.001Z,1002.74
2022-10-23T04:26:32.973Z,1002.76
2022-10-23T04:27:33.044Z,1002.79
2022-10-23T04:28:33.941Z,1002.72
2022-10-23T04:29:34.040Z,1002.73
2022-10-23T04:30:33.006Z,1002.79
2022-10-23T04:31:34.015Z,1002.73
2022-10-23T04:32:33.855Z,1002.77
2022-10-23T04:33:33.922Z,1002.76
2022-10-23T04:34:34.088Z,1002.73
2022-10-23T04:35:32.880Z,1002.8
2022-10-23T04:36:32.864Z,1002.78
2022-10-23T04:37:33.795Z,1002.82
2022-10-23T04:38:33.810Z,1002.82
2022-10-23T04:39:32.884Z,1002.75
2022-10-23T04:40:34.088Z,1002.77
2022-10-23T04:41:33.885Z,1002.78
2022-10-23T04:42:33.898Z,1002.71
2022-10-23T04:43:33.706Z,1002.74
2022-10-23T04:44:33.852Z,1002.75
2022-10-23T04:45:33.760Z,1002.75
2022-10-23T04:46:33.688Z,1002.77
2022-10-23T04:47:33.819Z,1002.67
2022-10-23T04:48:33.719Z,1002.74
2022-10-23T04:49:32.630Z,1002.7
2022-10-23T04:50:33.716Z,1002.64
2022-10-23T04:51:32.655Z,1002.68
2022-10-23T04:52:32.592Z,1002.67
2022-10-23T04:53:34.029Z,1002.64
2022-10-23T04:54:32.661Z,1002.66
2022-10-23T04:55:32.641Z,1002.66
2022-10-23T04:56:32.656Z,1002.66
2022-10-23T04:57:33.608Z,1002.59
2022-10-23T04:58:33.609Z,1002.66
2022-10-23T04:59:32.612Z,1002.63
2022-10-23T05:00:33.739Z,1002.65
2022-10-23T05:01:32.555Z,1002.61
2022-10-23T05:02:32.562Z,1002.62
2022-10-23T05:03:32.500Z,1002.58
2022-10-23T05:04:33.632Z,1002.63
2022-10-23T05:05:33.599Z,1002.63
2022-10-23T05:06:32.505Z,1002.64
2022-10-23T05:07:32.605Z,1002.65
2022-10-23T05:08:33.526Z,1002.68
2022-10-23T05:09:32.518Z,1002.63
2022-10-23T05:10:32.667Z,1002.66
2022-10-23T05:11:33.460Z,1002.66
2022-10-23T05:12:32.511Z,1002.71
2022-10-23T05:13:32.398Z,1002.69
2022-10-23T05:30:06.021Z,1002.68
2022-10-23T05:31:07.359Z,1002.62
2022-10-23T05:32:06.058Z,1002.63
2022-10-23T05:33:06.083Z,1002.62
2022-10-23T05:34:07.428Z,1002.57
2022-10-23T05:35:06.008Z,1002.59
2022-10-23T05:36:07.094Z,1002.55
2022-10-23T05:37:06.147Z,1002.55
2022-10-23T05:38:06.122Z,1002.55
2022-10-23T05:39:07.121Z,1002.53
2022-10-23T05:40:06.976Z,1002.48
2022-10-23T05:41:06.049Z,1002.47
2022-10-23T05:42:05.822Z,1002.45
2022-10-23T05:43:05.817Z,1002.45
2022-10-23T05:44:05.796Z,1002.39
2022-10-23T05:45:05.792Z,1002.45
2022-10-23T05:46:05.776Z,1002.45
2022-10-23T05:47:05.771Z,1002.44
2022-10-23T05:48:05.769Z,1002.43
2022-10-23T05:49:05.744Z,1002.45
2022-10-23T05:50:05.735Z,1002.4
2022-10-23T05:51:05.724Z,1002.39
2022-10-23T05:52:05.710Z,1002.38
2022-10-23T05:53:05.711Z,1002.38
2022-10-23T05:54:05.702Z,1002.36
2022-10-23T05:55:05.674Z,1002.37
2022-10-23T05:56:05.752Z,1002.3
2022-10-23T05:57:06.680Z,1002.33
2022-10-23T05:58:05.763Z,1002.27
2022-10-23T06:00:38.965Z,1002.34
2022-10-23T06:01:38.947Z,1002.29
2022-10-23T06:02:38.906Z,1002.3
2022-10-23T06:03:38.922Z,1002.27
2022-10-23T06:04:38.894Z,1002.25
2022-10-23T06:06:38.876Z,1002.25
2022-10-23T06:07:39.038Z,1002.26
2022-10-23T06:10:41.140Z,1002.27
2022-10-23T06:11:41.157Z,1002.3
2022-10-23T06:12:41.215Z,1002.22
2022-10-23T06:13:41.189Z,1002.16
2022-10-23T06:14:42.089Z,1002.26
2022-10-23T06:15:41.047Z,1002.06
2022-10-23T06:16:41.046Z,1002.15
2022-10-23T06:17:41.030Z,1002.13
2022-10-23T06:18:41.020Z,1002.13
2022-10-23T06:19:41.016Z,1002.14
2022-10-23T06:20:40.998Z,1002.12
2022-10-23T06:21:40.982Z,1002.12
2022-10-23T06:22:40.977Z,1002.09
2022-10-23T06:23:40.963Z,1002.14
2022-10-23T06:24:40.954Z,1002.04
2022-10-23T06:25:40.944Z,1002.02
2022-10-23T06:26:40.935Z,1002.04
2022-10-23T06:27:40.923Z,1002.02
2022-10-23T06:28:40.908Z,1002.03
2022-10-23T06:29:40.904Z,1001.99
2022-10-23T06:30:40.892Z,1002.08
2022-10-23T06:31:40.896Z,1002
2022-10-23T06:32:40.865Z,1002.02
2022-10-23T06:33:40.864Z,1002
2022-10-23T06:34:40.848Z,1001.98
2022-10-23T06:35:40.837Z,1001.98
2022-10-23T06:36:40.824Z,1002.03
2022-10-23T06:37:40.821Z,1001.99
2022-10-23T06:38:40.800Z,1002.04
2022-10-23T06:39:40.794Z,1002
2022-10-23T06:40:40.781Z,1001.99
2022-10-23T06:41:40.771Z,1002
2022-10-23T06:42:40.760Z,1001.96
2022-10-23T06:43:40.759Z,1002.05
2022-10-23T06:44:40.738Z,1001.99
2022-10-23T06:45:40.733Z,1002.02
2022-10-23T06:46:40.717Z,1002.03
2022-10-23T06:47:40.707Z,1002.04
2022-10-23T06:48:40.705Z,1001.99
2022-10-23T06:49:40.692Z,1002.04
2022-10-23T06:50:40.671Z,1001.98
2022-10-23T06:51:40.661Z,1001.93
2022-10-23T06:52:40.664Z,1001.99
2022-10-23T06:53:40.645Z,1001.97
2022-10-23T06:54:40.651Z,1002.01
2022-10-23T06:55:40.622Z,1001.98
2022-10-23T06:56:40.611Z,1002.01
2022-10-23T06:57:40.602Z,1001.91
2022-10-23T06:58:40.585Z,1001.88
2022-10-23T06:59:48.173Z,1001.88
2022-10-23T07:00:40.581Z,1001.87
2022-10-23T07:01:48.156Z,1001.84
2022-10-23T07:02:48.220Z,1001.91
2022-10-23T07:03:48.204Z,1001.93
2022-10-23T07:04:48.124Z,1001.91
2022-10-23T07:05:49.520Z,1001.94
2022-10-23T07:06:40.501Z,1001.92
2022-10-23T07:07:49.197Z,1001.95
2022-10-23T07:08:49.126Z,1001.98
2022-10-23T07:09:40.494Z,1001.96
2022-10-23T07:10:40.455Z,1002.01
2022-10-23T07:11:40.493Z,1002
2022-10-23T07:12:40.464Z,1002.02
2022-10-23T07:13:40.487Z,1002.02
2022-10-23T07:14:40.467Z,1002.01
2022-10-23T07:15:40.481Z,1002.04
2022-10-23T07:16:40.406Z,1002.09
2022-10-23T07:17:40.384Z,1002.13
2022-10-23T07:18:40.376Z,1002.09
2022-10-23T07:19:40.361Z,1002.03
2022-10-23T07:20:40.350Z,1002.03
2022-10-23T07:21:40.346Z,1002.08
2022-10-23T07:22:40.398Z,1002.04
2022-10-23T07:23:40.332Z,1002.03
2022-10-23T07:24:40.312Z,1002.13
2022-10-23T07:25:40.302Z,1002.08
2022-10-23T07:26:40.287Z,1002.09
2022-10-23T07:27:40.292Z,1002.1
2022-10-23T07:28:40.296Z,1002.1
2022-10-23T07:29:40.251Z,1002
2022-10-23T07:30:40.242Z,1002.1
2022-10-23T07:31:40.227Z,1002.02
2022-10-23T07:32:40.218Z,1002.02
2022-10-23T07:33:40.224Z,1001.99
2022-10-23T07:34:40.199Z,1001.94
2022-10-23T07:35:40.191Z,1001.93
2022-10-23T07:36:40.173Z,1001.89
2022-10-23T07:37:40.169Z,1001.95
2022-10-23T07:38:40.162Z,1001.93
2022-10-23T07:39:40.150Z,1001.97
2022-10-23T07:40:40.130Z,1001.96
2022-10-23T07:41:40.120Z,1001.97
2022-10-23T07:42:40.111Z,1001.94
2022-10-23T07:43:40.101Z,1001.97
2022-10-23T07:44:40.095Z,1001.98
2022-10-23T07:45:40.092Z,1001.97
2022-10-23T07:46:40.067Z,1001.97
2022-10-23T07:47:40.055Z,1001.89
2022-10-23T07:48:40.042Z,1001.91
2022-10-23T07:49:40.037Z,1001.91
2022-10-23T07:50:40.031Z,1001.9
2022-10-23T07:51:40.024Z,1001.83
2022-10-23T07:52:40.008Z,1001.83
2022-10-23T07:53:39.993Z,1001.83
2022-10-23T07:54:39.981Z,1001.79
2022-10-23T07:55:39.975Z,1001.82
2022-10-23T07:56:39.966Z,1001.81
2022-10-23T07:57:40.053Z,1001.89
2022-10-23T07:58:40.954Z,1001.83
2022-10-23T07:59:39.926Z,1001.8
2022-10-23T08:00:39.915Z,1001.87
2022-10-23T08:01:39.914Z,1001.86
2022-10-23T08:02:39.894Z,1001.97
2022-10-23T08:03:39.889Z,1001.97
2022-10-23T08:04:39.893Z,1001.91
2022-10-23T08:05:39.867Z,1001.89
2022-10-23T08:06:39.852Z,1001.92
2022-10-23T08:07:39.839Z,1001.89
2022-10-23T08:08:39.839Z,1001.9
2022-10-23T08:09:39.839Z,1001.91
2022-10-23T08:13:09.363Z,1001.92
2022-10-23T08:14:09.252Z,1001.97
2022-10-23T08:15:09.209Z,1001.88
2022-10-23T08:16:09.222Z,1001.88
2022-10-23T08:17:09.204Z,1001.86
2022-10-23T08:18:09.176Z,1001.84
2022-10-23T08:19:09.229Z,1001.81
2022-10-23T08:20:09.169Z,1001.74
2022-10-23T08:21:09.186Z,1001.79
2022-10-23T08:22:09.133Z,1001.71
2022-10-23T08:23:09.166Z,1001.76
2022-10-23T08:24:09.133Z,1001.71
2022-10-23T08:25:09.109Z,1001.67
2022-10-23T08:26:09.122Z,1001.73
2022-10-23T08:27:09.107Z,1001.71
2022-10-23T08:28:09.089Z,1001.74
2022-10-23T08:29:09.061Z,1001.7
2022-10-23T08:30:09.063Z,1001.66
2022-10-23T08:31:09.076Z,1001.66
2022-10-23T08:32:09.031Z,1001.66
2022-10-23T08:33:09.076Z,1001.63
2022-10-23T08:34:09.028Z,1001.56
2022-10-23T08:35:08.993Z,1001.54
2022-10-23T08:36:09.078Z,1001.53
2022-10-23T08:37:09.074Z,1001.48
2022-10-23T08:38:10.026Z,1001.53
2022-10-23T08:39:09.114Z,1001.51
2022-10-23T08:40:08.955Z,1001.52
2022-10-23T08:41:08.936Z,1001.49
2022-10-23T08:43:08.912Z,1001.57
2022-10-23T08:44:08.904Z,1001.57
2022-10-23T08:45:08.904Z,1001.58
2022-10-23T08:46:08.889Z,1001.56
2022-10-23T08:47:08.870Z,1001.6
2022-10-23T08:48:08.859Z,1001.63
2022-10-23T08:49:08.849Z,1001.6
2022-10-23T08:50:08.858Z,1001.56
2022-10-23T08:51:08.829Z,1001.49
2022-10-23T08:52:08.826Z,1001.55
2022-10-23T08:53:08.812Z,1001.52
2022-10-23T08:54:08.800Z,1001.55
2022-10-23T08:55:08.788Z,1001.51
2022-10-23T08:56:08.794Z,1001.53
2022-10-23T08:57:08.770Z,1001.56
2022-10-23T08:58:08.756Z,1001.55
2022-10-23T08:59:08.747Z,1001.56
2022-10-23T09:00:08.740Z,1001.59
2022-10-23T09:01:08.731Z,1001.58
2022-10-23T09:02:08.716Z,1001.56
2022-10-23T09:03:08.712Z,1001.52
2022-10-23T09:04:08.694Z,1001.57
2022-10-23T09:05:08.683Z,1001.55
2022-10-23T09:06:08.672Z,1001.52
2022-10-23T09:08:08.651Z,1001.62
2022-10-23T09:09:08.667Z,1001.57
2022-10-23T09:10:08.627Z,1001.59
2022-10-23T09:11:08.624Z,1001.52
2022-10-23T09:12:08.608Z,1001.51
2022-10-23T09:13:08.595Z,1001.6
2022-10-23T09:14:08.588Z,1001.54
2022-10-23T09:15:08.586Z,1001.58
2022-10-23T09:16:08.573Z,1001.54
2022-10-23T09:17:08.565Z,1001.57
2022-10-23T09:18:08.553Z,1001.6
2022-10-23T09:19:08.530Z,1001.58
2022-10-23T09:20:08.516Z,1001.62
2022-10-23T09:21:08.518Z,1001.55
2022-10-23T09:22:08.504Z,1001.52
2022-10-23T09:23:08.489Z,1001.55
2022-10-23T09:24:08.474Z,1001.5
2022-10-23T09:25:08.466Z,1001.47
2022-10-23T09:26:08.452Z,1001.54
2022-10-23T09:27:08.438Z,1001.48
2022-10-23T09:28:08.461Z,1001.48
2022-10-23T09:29:08.424Z,1001.43
2022-10-23T09:30:08.433Z,1001.49
2022-10-23T09:31:08.394Z,1001.49
2022-10-23T09:32:08.384Z,1001.5
2022-10-23T09:33:08.373Z,1001.45
2022-10-23T09:34:08.379Z,1001.38
2022-10-23T09:35:08.424Z,1001.45
2022-10-23T09:36:08.342Z,1001.38
2022-10-23T09:37:08.334Z,1001.38
2022-10-23T09:38:08.324Z,1001.34
2022-10-23T09:39:08.308Z,1001.36
2022-10-23T09:40:08.307Z,1001.3
2022-10-23T09:41:08.303Z,1001.24
2022-10-23T09:42:08.271Z,1001.2
2022-10-23T09:43:08.265Z,1001.18
2022-10-23T09:44:08.251Z,1001.27
2022-10-23T09:45:08.239Z,1001.22
2022-10-23T09:46:08.246Z,1001.21
2022-10-23T09:47:08.216Z,1001.17
2022-10-23T09:48:08.209Z,1001.12
2022-10-23T09:49:08.258Z,1001.18
2022-10-23T09:50:08.180Z,1001.11
2022-10-23T09:51:08.174Z,1001.09
2022-10-23T09:52:08.202Z,1001.12
2022-10-23T09:53:08.156Z,1001.07
2022-10-23T09:54:08.143Z,1001.05
2022-10-23T09:55:08.129Z,1001.04
2022-10-23T09:56:08.137Z,1001.06
2022-10-23T09:57:08.138Z,1001.1
2022-10-23T09:58:08.110Z,1001.05
2022-10-23T09:59:08.089Z,1001.03
2022-10-23T10:00:08.082Z,1000.95
2022-10-23T10:01:08.067Z,1000.96
2022-10-23T10:02:08.055Z,1000.92
2022-10-23T10:03:08.043Z,1000.88
2022-10-23T10:04:08.033Z,1000.9
2022-10-23T10:05:08.018Z,1000.94
2022-10-23T10:06:08.032Z,1000.91
2022-10-23T10:07:08.010Z,1000.95
2022-10-23T10:08:07.986Z,1000.92
2022-10-23T10:09:07.980Z,1000.95
2022-10-23T10:10:07.968Z,1000.94
2022-10-23T10:11:07.957Z,1000.93
2022-10-23T10:12:07.956Z,1000.82
2022-10-23T10:13:07.932Z,1000.84
2022-10-23T10:14:07.931Z,1000.83
2022-10-23T10:15:07.910Z,1000.96
2022-10-23T10:16:07.905Z,1000.86
2022-10-23T10:17:07.898Z,1000.87
2022-10-23T10:18:07.890Z,1000.87
2022-10-23T10:19:07.868Z,1000.85
2022-10-23T10:20:07.867Z,1000.91
2022-10-23T10:40:22.308Z,1000.71
2022-10-23T10:41:23.170Z,1000.64
2022-10-23T10:42:22.158Z,1000.62
2022-10-23T10:43:22.169Z,1000.63
2022-10-23T10:44:22.104Z,1000.62
2022-10-23T10:45:22.104Z,1000.63
2022-10-23T10:46:22.096Z,1000.69
2022-10-23T10:47:22.104Z,1000.67
2022-10-23T10:48:22.075Z,1000.62
2022-10-23T10:49:22.142Z,1000.58
2022-10-23T10:50:22.054Z,1000.62
2022-10-23T10:51:22.037Z,1000.5
2022-10-23T10:52:22.021Z,1000.54
2022-10-23T10:53:22.021Z,1000.52
2022-10-23T10:54:21.994Z,1000.46
2022-10-23T10:55:22.001Z,1000.47
2022-10-23T10:56:22.055Z,1000.48
2022-10-23T10:57:21.972Z,1000.44
2022-10-23T10:58:21.980Z,1000.41
2022-10-23T10:59:21.949Z,1000.44
2022-10-23T11:00:21.952Z,1000.41
2022-10-23T11:01:21.991Z,1000.44
2022-10-23T11:02:22.038Z,1000.38
2022-10-23T11:03:21.911Z,1000.31
2022-10-23T11:04:21.889Z,1000.22
2022-10-23T11:05:21.899Z,1000.19
2022-10-23T11:06:21.870Z,1000.18
2022-10-23T11:07:21.860Z,1000.14
2022-10-23T11:08:21.860Z,1000.16
2022-10-23T11:09:21.837Z,1000.16
2022-10-23T11:10:21.828Z,1000.14
2022-10-23T11:11:21.831Z,1000.1
2022-10-23T11:12:21.803Z,1000.06
2022-10-23T11:13:21.802Z,1000.02
2022-10-23T11:14:21.796Z,1000.1
2022-10-23T11:15:21.777Z,1000.01
2022-10-23T11:16:21.765Z,999.99
2022-10-23T11:17:21.753Z,1000
2022-10-23T11:18:21.746Z,999.98
2022-10-23T11:19:21.742Z,1000.01
2022-10-23T11:20:21.734Z,1000.02
2022-10-23T11:21:21.726Z,999.94
2022-10-23T11:22:21.750Z,999.95
2022-10-23T11:23:21.703Z,1000.04
2022-10-23T11:24:21.676Z,999.94
2022-10-23T11:25:21.674Z,1000.06
2022-10-23T11:26:21.666Z,999.92
2022-10-23T11:27:21.652Z,999.97
2022-10-23T11:28:21.637Z,999.95
2022-10-23T11:29:21.624Z,999.93
2022-10-23T11:30:21.614Z,999.9
2022-10-23T11:31:21.602Z,999.91
2022-10-23T11:32:21.602Z,999.94
2022-10-23T11:33:21.586Z,999.9
2022-10-23T11:34:21.574Z,999.92
2022-10-23T11:35:21.561Z,999.91
2022-10-23T11:36:21.553Z,999.91
2022-10-23T11:37:21.542Z,999.88
2022-10-23T11:38:21.542Z,999.89
2022-10-23T11:39:21.528Z,999.88
2022-10-23T11:40:21.507Z,999.86
2022-10-23T11:41:21.498Z,999.89
2022-10-23T11:42:21.489Z,999.89
2022-10-23T11:43:21.474Z,999.83
2022-10-23T11:44:21.475Z,999.82
2022-10-23T11:45:21.460Z,999.8
2022-10-23T11:46:21.449Z,999.75
2022-10-23T11:47:21.441Z,999.76
2022-10-23T11:48:21.426Z,999.74
2022-10-23T11:49:21.423Z,999.72
2022-10-23T11:50:21.410Z,999.7
2022-10-23T11:51:21.406Z,999.71
2022-10-23T11:52:21.385Z,999.7
2022-10-23T11:53:21.372Z,999.68
2022-10-23T11:54:21.363Z,999.7
2022-10-23T11:55:21.348Z,999.69
2022-10-23T11:56:21.367Z,999.59
2022-10-23T11:57:21.331Z,999.54
2022-10-23T11:58:21.318Z,999.53
2022-10-23T11:59:21.306Z,999.54
2022-10-23T12:00:21.332Z,999.55
2022-10-23T12:01:21.292Z,999.57
2022-10-23T12:02:21.304Z,999.55
2022-10-23T12:03:21.267Z,999.55
2022-10-23T12:04:21.257Z,999.42
2022-10-23T12:05:21.244Z,999.56
2022-10-23T12:06:21.238Z,999.5
2022-10-23T12:07:21.227Z,999.5
2022-10-23T12:08:21.219Z,999.45
2022-10-23T12:09:21.203Z,999.38
2022-10-23T12:10:21.191Z,999.43
2022-10-23T12:11:21.186Z,999.4
2022-10-23T12:12:21.169Z,999.41
2022-10-23T12:13:21.161Z,999.4
2022-10-23T12:14:21.160Z,999.44
2022-10-23T12:15:21.140Z,999.38
2022-10-23T12:16:21.138Z,999.34
2022-10-23T12:17:21.114Z,999.33
2022-10-23T12:18:21.105Z,999.26
2022-10-23T12:19:21.114Z,999.32
2022-10-23T12:20:21.101Z,999.21
2022-10-23T12:21:21.085Z,999.26
2022-10-23T12:22:21.067Z,999.21
2022-10-23T12:23:21.058Z,999.18
2022-10-23T12:24:21.040Z,999.19
2022-10-23T12:25:21.038Z,999.19
2022-10-23T12:26:21.035Z,999.2
2022-10-23T12:27:21.015Z,999.08
2022-10-23T12:28:21.008Z,999.11
2022-10-23T12:29:20.990Z,999
2022-10-23T12:30:20.979Z,998.99
2022-10-23T12:31:20.976Z,999.05
2022-10-23T12:32:20.959Z,998.95
2022-10-23T12:33:20.965Z,998.94
2022-10-23T12:34:20.935Z,998.89
2022-10-23T12:35:20.928Z,998.77
2022-10-23T12:36:20.914Z,998.77
2022-10-23T12:37:20.927Z,998.73
2022-10-23T12:38:20.898Z,998.72
2022-10-23T12:39:20.899Z,998.65
2022-10-23T12:40:20.885Z,998.76
2022-10-23T12:41:20.859Z,998.68
2022-10-23T12:42:20.867Z,998.7
2022-10-23T12:43:20.851Z,998.68
2022-10-23T12:44:20.831Z,998.59
2022-10-23T12:45:20.830Z,998.61
2022-10-23T12:46:20.819Z,998.52
2022-10-23T12:47:20.814Z,998.52
2022-10-23T12:48:20.794Z,998.58
2022-10-23T12:49:20.784Z,998.47
2022-10-23T12:50:20.767Z,998.56
2022-10-23T12:51:20.765Z,998.58
2022-10-23T12:52:20.752Z,998.72
2022-10-23T12:53:20.760Z,998.76
2022-10-23T12:54:20.726Z,998.72
2022-10-23T12:55:20.717Z,998.74